createdAt,value
2018-09-14T00:01:23.274Z,24.50
2018-09-14T00:03:51.825Z,24.40
2018-09-14T00:06:20.536Z,24.90
2018-09-14T00:08:52.129Z,23.73
2018-09-14T00:11:20.661Z,24.63
2018-09-14T00:13:50.580Z,23.70
2018-09-14T00:16:19.107Z,25.23
2018-09-14T00:18:47.550Z,25.20
2018-09-14T00:21:15.995Z,24.77
2018-09-14T00:23:44.504Z,26.67
2018-09-14T00:26:12.999Z,26.47
2018-09-14T00:28:42.072Z,26.17
2018-09-14T00:31:10.590Z,28.10
2018-09-14T00:33:39.095Z,28.00
2018-09-14T00:36:07.615Z,28.03
2018-09-14T00:38:36.055Z,28.33
2018-09-14T00:41:04.582Z,28.03
2018-09-14T00:43:33.153Z,26.23
2018-09-14T00:46:01.595Z,27.40
2018-09-14T00:48:30.009Z,25.23
2018-09-14T00:50:58.612Z,27.20
2018-09-14T00:53:27.161Z,27.07
2018-09-14T00:55:55.730Z,24.27
2018-09-14T00:58:24.311Z,23.27
2018-09-14T01:00:52.750Z,19.90
2018-09-14T01:03:21.448Z,19.73
2018-09-14T01:05:50.048Z,18.43
2018-09-14T01:08:18.837Z,17.93
2018-09-14T01:10:48.314Z,17.07
2018-09-14T01:13:16.723Z,16.00
2018-09-14T01:15:45.211Z,15.93
2018-09-14T01:18:13.627Z,14.30
2018-09-14T01:20:42.077Z,15.20
2018-09-14T01:23:10.555Z,15.07
2018-09-14T01:25:38.953Z,14.63
2018-09-14T01:28:07.411Z,14.53
2018-09-14T01:30:35.860Z,15.63
2018-09-14T01:33:04.476Z,16.50
2018-09-14T01:35:38.277Z,16.13
2018-09-14T01:38:06.819Z,17.07
2018-09-14T01:40:35.441Z,17.60
2018-09-14T01:43:04.066Z,17.53
2018-09-14T01:45:32.556Z,19.43
2018-09-14T01:48:01.061Z,19.33
2018-09-14T01:50:29.481Z,19.40
2018-09-14T01:52:57.889Z,20.33
2018-09-14T01:55:26.749Z,19.90
2018-09-14T01:57:55.260Z,20.73
2018-09-14T02:00:24.573Z,20.90
2018-09-14T02:02:53.077Z,20.17
2018-09-14T02:05:21.537Z,20.23
2018-09-14T02:07:49.977Z,25.60
2018-09-14T02:10:24.425Z,18.83
2018-09-14T02:12:53.631Z,23.67
2018-09-14T02:15:22.072Z,19.17
2018-09-14T02:17:50.511Z,19.13
2018-09-14T02:20:19.817Z,18.10
2018-09-14T02:22:49.096Z,18.23
2018-09-14T02:25:17.543Z,18.30
2018-09-14T02:27:45.957Z,17.70
2018-09-14T02:30:14.414Z,18.07
2018-09-14T02:32:43.052Z,17.67
2018-09-14T02:35:11.908Z,17.77
2018-09-14T02:37:40.378Z,17.67
2018-09-14T02:40:08.916Z,17.30
2018-09-14T02:42:37.519Z,18.07
2018-09-14T02:45:06.351Z,16.57
2018-09-14T02:47:34.795Z,16.90
2018-09-14T02:50:03.271Z,15.63
2018-09-14T02:52:31.720Z,15.27
2018-09-14T02:55:00.296Z,15.23
2018-09-14T02:57:28.781Z,14.30
2018-09-14T02:59:57.199Z,15.83
2018-09-14T03:02:25.641Z,14.53
2018-09-14T03:04:54.098Z,15.40
2018-09-14T03:07:22.510Z,15.60
2018-09-14T03:09:51.063Z,15.90
2018-09-14T03:12:19.668Z,15.63
2018-09-14T03:14:48.333Z,15.43
2018-09-14T03:17:16.878Z,16.20
2018-09-14T03:19:45.335Z,15.50
2018-09-14T03:22:13.974Z,16.33
2018-09-14T03:24:42.519Z,15.80
2018-09-14T03:27:11.011Z,16.50
2018-09-14T03:29:39.459Z,16.67
2018-09-14T03:32:07.958Z,16.50
2018-09-14T03:34:36.484Z,16.80
2018-09-14T03:37:04.944Z,15.70
2018-09-14T03:39:33.392Z,15.83
2018-09-14T03:42:01.853Z,16.37
2018-09-14T03:44:30.356Z,15.93
2018-09-14T03:46:58.813Z,14.80
2018-09-14T03:49:27.302Z,16.30
2018-09-14T03:51:55.781Z,16.37
2018-09-14T03:54:24.342Z,15.63
2018-09-14T03:56:52.840Z,16.57
2018-09-14T03:59:21.270Z,16.50
2018-09-14T04:01:49.855Z,16.97
2018-09-14T04:04:18.304Z,18.90
2018-09-14T04:06:46.770Z,18.97
2018-09-14T04:09:15.219Z,19.63
2018-09-14T04:11:43.639Z,18.37
2018-09-14T04:14:12.151Z,19.07
2018-09-14T04:16:40.609Z,17.33
2018-09-14T04:19:09.051Z,18.53
2018-09-14T04:21:37.603Z,18.47
2018-09-14T04:24:06.101Z,19.63
2018-09-14T04:26:34.661Z,19.03
2018-09-14T04:29:03.365Z,18.17
2018-09-14T04:31:31.957Z,19.00
2018-09-14T04:34:00.537Z,22.43
2018-09-14T04:36:29.010Z,21.03
2018-09-14T04:38:58.200Z,19.70
2018-09-14T04:41:26.614Z,19.83
2018-09-14T04:43:54.997Z,19.63
2018-09-14T04:46:23.586Z,19.40
2018-09-14T04:48:51.990Z,19.60
2018-09-14T04:51:20.459Z,19.57
2018-09-14T04:53:48.885Z,19.33
2018-09-14T04:56:17.329Z,19.23
2018-09-14T04:58:45.806Z,20.43
2018-09-14T05:01:14.287Z,20.13
2018-09-14T05:03:43.103Z,21.03
2018-09-14T05:06:11.559Z,21.90
2018-09-14T05:08:40.111Z,22.07
2018-09-14T05:11:08.656Z,20.90
2018-09-14T05:13:37.162Z,22.17
2018-09-14T05:16:06.012Z,21.27
2018-09-14T05:18:34.476Z,21.37
2018-09-14T05:21:03.066Z,20.03
2018-09-14T05:23:31.583Z,19.33
2018-09-14T05:26:00.088Z,19.83
2018-09-14T05:28:28.621Z,18.90
2018-09-14T05:30:57.517Z,18.90
2018-09-14T05:33:26.028Z,19.30
2018-09-14T05:35:54.559Z,18.77
2018-09-14T05:38:23.129Z,20.57
2018-09-14T05:40:51.443Z,19.23
2018-09-14T05:43:19.870Z,20.07
2018-09-14T05:45:48.530Z,18.50
2018-09-14T05:48:17.013Z,19.90
2018-09-14T05:50:45.739Z,18.13
2018-09-14T05:53:14.361Z,19.13
2018-09-14T05:55:42.875Z,19.93
2018-09-14T05:58:11.425Z,18.60
2018-09-14T06:00:39.848Z,17.77
2018-09-14T06:03:08.313Z,18.20
2018-09-14T06:05:36.848Z,18.07
2018-09-14T06:08:05.429Z,16.93
2018-09-14T06:10:34.022Z,18.27
2018-09-14T06:13:03.485Z,17.13
2018-09-14T06:15:31.964Z,19.27
2018-09-14T06:18:00.449Z,17.40
2018-09-14T06:20:29.070Z,19.60
2018-09-14T06:22:57.607Z,18.37
2018-09-14T06:25:26.036Z,17.60
2018-09-14T06:27:54.513Z,16.43
2018-09-14T06:30:29.711Z,16.23
2018-09-14T06:32:59.467Z,17.67
2018-09-14T06:35:27.944Z,16.17
2018-09-14T06:37:56.373Z,17.07
2018-09-14T06:40:24.829Z,15.77
2018-09-14T06:42:53.349Z,17.03
2018-09-14T06:45:21.832Z,16.97
2018-09-14T06:47:50.320Z,15.73
2018-09-14T06:50:18.820Z,17.27
2018-09-14T06:52:47.304Z,15.83
2018-09-14T06:55:15.738Z,22.93
2018-09-14T06:57:44.191Z,16.63
2018-09-14T07:00:12.808Z,15.87
2018-09-14T07:02:41.270Z,14.97
2018-09-14T07:05:09.761Z,15.33
2018-09-14T07:07:38.203Z,15.40
2018-09-14T07:10:06.753Z,16.00
2018-09-14T07:12:35.296Z,15.13
2018-09-14T07:15:03.843Z,14.60
2018-09-14T07:17:32.434Z,14.67
2018-09-14T07:20:00.959Z,14.53
2018-09-14T07:22:29.501Z,13.80
2018-09-14T07:24:58.024Z,13.93
2018-09-14T07:27:26.541Z,14.07
2018-09-14T07:29:55.050Z,13.97
2018-09-14T07:32:24.099Z,14.77
2018-09-14T07:34:53.324Z,13.30
2018-09-14T07:37:21.839Z,13.47
2018-09-14T07:39:50.333Z,12.60
2018-09-14T07:42:18.941Z,13.40
2018-09-14T07:44:47.760Z,12.43
2018-09-14T07:47:16.169Z,12.90
2018-09-14T07:49:44.648Z,14.37
2018-09-14T07:52:13.106Z,13.10
2018-09-14T07:54:41.626Z,12.70
2018-09-14T07:57:10.077Z,12.97
2018-09-14T07:59:38.536Z,12.50
2018-09-14T08:02:07.069Z,12.73
2018-09-14T08:04:35.636Z,12.90
2018-09-14T08:07:04.133Z,12.77
2018-09-14T08:09:32.613Z,13.13
2018-09-14T08:12:01.106Z,12.53
2018-09-14T08:14:29.629Z,12.10
2018-09-14T08:16:58.156Z,12.50
2018-09-14T08:19:26.602Z,14.10
2018-09-14T08:21:55.413Z,13.43
2018-09-14T08:24:23.855Z,12.80
2018-09-14T08:26:52.349Z,13.00
2018-09-14T08:29:20.760Z,12.97
2018-09-14T08:31:50.199Z,13.53
2018-09-14T08:34:18.817Z,12.70
2018-09-14T08:36:47.310Z,13.57
2018-09-14T08:39:15.823Z,13.77
2018-09-14T08:41:44.287Z,13.67
2018-09-14T08:44:12.842Z,12.40
2018-09-14T08:46:41.424Z,12.50
2018-09-14T08:49:09.908Z,12.83
2018-09-14T08:51:38.306Z,12.13
2018-09-14T08:54:06.867Z,12.00
2018-09-14T08:56:35.307Z,11.20
2018-09-14T08:59:03.760Z,10.60
2018-09-14T09:01:32.963Z,10.47
2018-09-14T09:04:01.417Z,11.20
2018-09-14T09:06:29.925Z,11.67
2018-09-14T09:08:58.494Z,12.90
2018-09-14T09:11:26.957Z,11.60
2018-09-14T09:13:55.380Z,10.87
2018-09-14T09:16:24.038Z,11.20
2018-09-14T09:18:52.479Z,11.07
2018-09-14T09:21:21.045Z,11.73
2018-09-14T09:23:49.546Z,10.63
2018-09-14T09:26:18.131Z,11.40
2018-09-14T09:28:47.589Z,10.70
2018-09-14T09:31:16.068Z,11.40
2018-09-14T09:33:44.494Z,10.73
2018-09-14T09:36:12.972Z,10.47
2018-09-14T09:38:41.432Z,11.27
2018-09-14T09:41:10.004Z,10.37
2018-09-14T09:43:39.727Z,10.90
2018-09-14T09:46:08.159Z,10.43
2018-09-14T09:48:36.677Z,11.93
2018-09-14T09:51:05.213Z,10.67
2018-09-14T09:53:33.780Z,11.40
2018-09-14T09:56:02.285Z,12.10
2018-09-14T09:58:30.838Z,11.83
2018-09-14T10:01:35.343Z,11.40
2018-09-14T10:04:09.337Z,11.50
2018-09-14T10:06:37.749Z,11.47
2018-09-14T10:09:08.619Z,11.60
2018-09-14T10:11:37.199Z,11.90
2018-09-14T10:14:06.213Z,11.70
2018-09-14T10:16:34.628Z,13.03
2018-09-14T10:19:03.101Z,12.83
2018-09-14T10:21:31.718Z,12.90
2018-09-14T10:24:00.226Z,14.03
2018-09-14T10:26:28.823Z,12.87
2018-09-14T10:28:57.402Z,13.40
2018-09-14T10:31:26.112Z,12.63
2018-09-14T10:33:55.569Z,13.50
2018-09-14T10:36:24.147Z,13.30
2018-09-14T10:38:52.620Z,12.90
2018-09-14T10:41:21.084Z,13.03
2018-09-14T10:43:49.589Z,13.03
2018-09-14T10:46:18.046Z,13.47
2018-09-14T10:48:46.583Z,13.53
2018-09-14T10:51:15.080Z,14.87
2018-09-14T10:53:43.535Z,13.40
2018-09-14T10:56:13.129Z,14.67
2018-09-14T10:58:43.116Z,13.93
2018-09-14T11:01:13.678Z,13.90
2018-09-14T11:03:42.583Z,14.13
2018-09-14T11:06:11.374Z,13.47
2018-09-14T11:08:39.918Z,13.37
2018-09-14T11:11:08.846Z,12.70
2018-09-14T11:13:37.550Z,12.60
2018-09-14T11:16:06.161Z,12.10
2018-09-14T11:18:34.777Z,12.67
2018-09-14T11:21:03.302Z,12.67
2018-09-14T11:23:31.892Z,12.20
2018-09-14T11:26:01.177Z,12.03
2018-09-14T11:28:29.692Z,11.57
2018-09-14T11:30:58.206Z,11.17
2018-09-14T11:33:26.699Z,11.20
2018-09-14T11:35:55.180Z,12.10
2018-09-14T11:38:23.727Z,12.13
2018-09-14T11:40:52.276Z,10.80
2018-09-14T11:43:20.829Z,11.17
2018-09-14T11:45:49.456Z,10.73
2018-09-14T11:48:18.012Z,10.57
2018-09-14T11:50:46.824Z,10.43
2018-09-14T11:53:15.363Z,10.27
2018-09-14T11:55:43.962Z,10.30
2018-09-14T11:58:12.525Z,10.40
2018-09-14T12:00:41.230Z,10.80
2018-09-14T12:03:09.720Z,9.60
2018-09-14T12:05:38.219Z,10.53
2018-09-14T12:08:06.717Z,10.00
2018-09-14T12:10:35.242Z,9.77
2018-09-14T12:13:10.349Z,9.63
2018-09-14T12:15:38.894Z,10.30
2018-09-14T12:18:07.364Z,10.17
2018-09-14T12:20:36.875Z,9.67
2018-09-14T12:23:05.415Z,10.23
2018-09-14T12:25:34.006Z,10.50
2018-09-14T12:28:03.281Z,10.17
2018-09-14T12:30:31.860Z,10.27
2018-09-14T12:33:00.406Z,9.73
2018-09-14T12:35:28.912Z,8.17
2018-09-14T12:37:57.487Z,9.20
2018-09-14T12:40:25.993Z,8.90
2018-09-14T12:42:54.432Z,8.37
2018-09-14T12:45:23.163Z,9.47
2018-09-14T12:47:51.847Z,9.10
2018-09-14T12:50:20.489Z,8.90
2018-09-14T12:52:49.147Z,9.53
2018-09-14T12:55:17.817Z,9.27
2018-09-14T12:57:46.301Z,9.07
2018-09-14T13:00:15.744Z,9.27
2018-09-14T13:02:44.368Z,8.30
2018-09-14T13:05:12.883Z,9.37
2018-09-14T13:07:41.346Z,9.20
2018-09-14T13:10:09.864Z,8.97
2018-09-14T13:12:38.354Z,9.77
2018-09-14T13:15:06.900Z,9.13
2018-09-14T13:17:35.413Z,10.00
2018-09-14T13:20:03.951Z,9.93
2018-09-14T13:22:32.570Z,11.90
2018-09-14T13:25:01.315Z,11.57
2018-09-14T13:27:30.233Z,12.07
2018-09-14T13:29:58.902Z,12.20
2018-09-14T13:32:27.598Z,11.43
2018-09-14T13:34:56.588Z,11.93
2018-09-14T13:37:25.075Z,11.43
2018-09-14T13:39:53.577Z,11.00
2018-09-14T13:42:22.105Z,14.97
2018-09-14T13:44:50.712Z,13.00
2018-09-14T13:47:19.179Z,13.30
2018-09-14T13:49:47.665Z,15.00
2018-09-14T13:52:16.084Z,14.57
2018-09-14T13:54:44.584Z,14.13
2018-09-14T13:57:13.163Z,15.97
2018-09-14T13:59:41.666Z,15.00
2018-09-14T14:02:10.169Z,14.10
2018-09-14T14:04:38.776Z,13.83
2018-09-14T14:07:07.419Z,13.90
2018-09-14T14:09:36.077Z,13.93
2018-09-14T14:12:04.694Z,15.33
2018-09-14T14:14:33.391Z,13.10
2018-09-14T14:17:02.134Z,13.10
2018-09-14T14:19:30.586Z,14.53
2018-09-14T14:21:59.101Z,13.10
2018-09-14T14:24:27.572Z,17.10
2018-09-14T14:26:56.018Z,14.67
2018-09-14T14:29:24.580Z,13.53
2018-09-14T14:31:53.044Z,14.13
2018-09-14T14:34:21.558Z,13.23
2018-09-14T14:36:50.117Z,14.53
2018-09-14T14:39:18.675Z,23.47
2018-09-14T14:41:47.207Z,15.47
2018-09-14T14:44:15.719Z,15.30
2018-09-14T14:46:44.695Z,13.53
2018-09-14T14:49:14.294Z,17.37
2018-09-14T14:51:42.925Z,14.23
2018-09-14T14:54:11.547Z,13.80
2018-09-14T14:56:40.206Z,13.70
2018-09-14T14:59:09.011Z,14.67
2018-09-14T15:01:37.593Z,13.90
2018-09-14T15:04:06.216Z,14.13
2018-09-14T15:06:34.720Z,16.57
2018-09-14T15:09:03.556Z,13.27
2018-09-14T15:11:32.238Z,13.00
2018-09-14T15:14:00.890Z,14.13
2018-09-14T15:16:29.612Z,14.37
2018-09-14T15:18:58.482Z,14.33
2018-09-14T15:21:27.199Z,14.17
2018-09-14T15:23:56.304Z,14.67
2018-09-14T15:26:24.934Z,15.17
2018-09-14T15:28:53.879Z,13.87
2018-09-14T15:31:22.430Z,13.63
2018-09-14T15:33:51.075Z,13.47
2018-09-14T15:36:19.651Z,13.37
2018-09-14T15:38:48.194Z,12.70
2018-09-14T15:41:16.744Z,14.33
2018-09-14T15:43:45.409Z,14.73
2018-09-14T15:46:13.853Z,12.40
2018-09-14T15:48:48.403Z,11.53
2018-09-14T15:51:17.048Z,12.03
2018-09-14T15:53:45.627Z,12.17
2018-09-14T15:56:14.308Z,13.13
2018-09-14T15:58:44.045Z,13.30
2018-09-14T16:01:12.561Z,12.60
2018-09-14T16:03:41.070Z,14.43
2018-09-14T16:06:09.571Z,14.10
2018-09-14T16:08:38.108Z,13.27
2018-09-14T16:11:06.606Z,13.33
2018-09-14T16:13:35.223Z,12.77
2018-09-14T16:16:03.762Z,13.53
2018-09-14T16:18:32.178Z,12.07
2018-09-14T16:21:00.749Z,13.30
2018-09-14T16:23:29.238Z,13.33
2018-09-14T16:25:57.803Z,13.27
2018-09-14T16:28:26.400Z,13.37
2018-09-14T16:30:55.046Z,12.63
2018-09-14T16:33:23.774Z,12.17
2018-09-14T16:35:52.437Z,12.70
2018-09-14T16:38:27.751Z,12.37
2018-09-14T16:40:56.435Z,13.43
2018-09-14T16:43:25.096Z,13.33
2018-09-14T16:45:54.285Z,14.30
2018-09-14T16:48:23.288Z,14.23
2018-09-14T16:50:51.874Z,12.50
2018-09-14T16:53:20.482Z,13.40
2018-09-14T16:55:49.103Z,13.47
2018-09-14T16:58:17.796Z,13.50
2018-09-14T17:00:46.860Z,12.37
2018-09-14T17:03:15.538Z,12.37
2018-09-14T17:05:44.395Z,11.87
2018-09-14T17:08:13.604Z,12.60
2018-09-14T17:10:42.575Z,12.90
2018-09-14T17:13:11.215Z,13.30
2018-09-14T17:15:39.866Z,13.33
2018-09-14T17:18:08.555Z,12.90
2018-09-14T17:20:37.325Z,12.93
2018-09-14T17:23:06.157Z,12.50
2018-09-14T17:25:35.389Z,12.37
2018-09-14T17:28:04.010Z,12.87
2018-09-14T17:30:32.727Z,12.90
2018-09-14T17:33:02.026Z,12.30
2018-09-14T17:35:31.195Z,11.93
2018-09-14T17:38:00.952Z,12.67
2018-09-14T17:40:29.970Z,13.30
2018-09-14T17:42:59.070Z,12.53
2018-09-14T17:45:27.930Z,12.70
2018-09-14T17:47:56.562Z,12.83
2018-09-14T17:50:25.741Z,12.97
2018-09-14T17:52:54.664Z,12.30
2018-09-14T17:55:23.759Z,13.07
2018-09-14T17:57:52.438Z,14.13
2018-09-14T18:00:21.227Z,14.17
2018-09-14T18:02:50.062Z,13.47
2018-09-14T18:05:18.619Z,14.10
2018-09-14T18:07:47.419Z,12.90
2018-09-14T18:10:16.740Z,13.80
2018-09-14T18:12:45.662Z,13.13
2018-09-14T18:15:14.669Z,14.07
2018-09-14T18:17:43.304Z,14.97
2018-09-14T18:20:12.255Z,14.93
2018-09-14T18:22:40.938Z,13.77
2018-09-14T18:25:09.624Z,15.27
2018-09-14T18:27:38.426Z,16.03
2018-09-14T18:30:07.531Z,15.90
2018-09-14T18:32:36.672Z,15.30
2018-09-14T18:35:06.741Z,17.13
2018-09-14T18:37:35.755Z,15.93
2018-09-14T18:40:04.736Z,15.83
2018-09-14T18:42:33.610Z,16.43
2018-09-14T18:45:02.466Z,15.97
2018-09-14T18:47:30.984Z,17.07
2018-09-14T18:49:59.575Z,24.70
2018-09-14T18:52:28.461Z,15.97
2018-09-14T18:54:57.240Z,17.00
2018-09-14T18:57:26.068Z,98.23
2018-09-14T18:59:55.238Z,46.63
2018-09-14T19:02:24.471Z,16.57
2018-09-14T19:04:53.613Z,17.10
2018-09-14T19:07:22.832Z,16.93
2018-09-14T19:09:51.890Z,16.30
2018-09-14T19:12:20.925Z,18.43
2018-09-14T19:14:50.026Z,17.00
2018-09-14T19:17:18.758Z,17.37
2018-09-14T19:19:48.065Z,28.20
2018-09-14T19:22:17.133Z,17.63
2018-09-14T19:24:46.418Z,17.83
2018-09-14T19:27:15.151Z,19.27
2018-09-14T19:29:44.143Z,26.77
2018-09-14T19:32:14.011Z,18.70
2018-09-14T19:34:42.959Z,17.53
2018-09-14T19:37:11.971Z,20.50
2018-09-14T19:39:41.186Z,17.63
2018-09-14T19:42:10.010Z,18.73
2018-09-14T19:44:39.210Z,19.23
2018-09-14T19:47:07.909Z,19.60
2018-09-14T19:49:36.730Z,18.93
2018-09-14T19:52:05.361Z,19.53
2018-09-14T19:54:33.897Z,18.90
2018-09-14T19:57:02.790Z,23.63
2018-09-14T19:59:31.837Z,18.87
2018-09-14T20:02:00.571Z,18.83
2018-09-14T20:04:29.432Z,18.57
2018-09-14T20:06:58.196Z,20.23
2018-09-14T20:09:26.931Z,20.50
2018-09-14T20:11:55.643Z,18.60
2018-09-14T20:14:24.291Z,17.03
2018-09-14T20:16:52.892Z,19.00
2018-09-14T20:19:21.773Z,17.40
2018-09-14T20:21:50.443Z,18.60
2018-09-14T20:24:19.033Z,19.77
2018-09-14T20:26:47.637Z,19.07
2018-09-14T20:29:16.151Z,19.80
2018-09-14T20:31:44.671Z,19.80
2018-09-14T20:34:13.244Z,19.67
2018-09-14T20:36:41.803Z,19.70
2018-09-14T20:39:11.977Z,19.37
2018-09-14T20:41:40.803Z,20.10
2018-09-14T20:44:09.430Z,19.70
2018-09-14T20:46:38.008Z,19.13
2018-09-14T20:49:06.685Z,19.63
2018-09-14T20:51:35.321Z,20.50
2018-09-14T20:54:04.416Z,20.50
2018-09-14T20:56:32.970Z,21.50
2018-09-14T20:59:01.554Z,21.47
2018-09-14T21:01:30.033Z,21.67
2018-09-14T21:03:58.523Z,21.90
2018-09-14T21:06:26.994Z,23.70
2018-09-14T21:08:55.978Z,21.30
2018-09-14T21:11:24.556Z,21.27
2018-09-14T21:13:53.090Z,21.53
2018-09-14T21:16:21.688Z,21.70
2018-09-14T21:18:50.227Z,20.53
2018-09-14T21:21:18.782Z,20.17
2018-09-14T21:23:47.286Z,20.73
2018-09-14T21:26:15.806Z,19.33
2018-09-14T21:28:44.319Z,21.10
2018-09-14T21:31:12.799Z,21.13
2018-09-14T21:33:41.552Z,21.67
2018-09-14T21:36:10.066Z,21.70
2018-09-14T21:38:38.802Z,22.93
2018-09-14T21:41:07.428Z,23.67
2018-09-14T21:43:36.007Z,23.07
2018-09-14T21:46:04.687Z,23.63
2018-09-14T21:48:33.347Z,23.00
2018-09-14T21:51:01.865Z,22.43
2018-09-14T21:53:30.363Z,23.43
2018-09-14T21:55:58.964Z,23.90
2018-09-14T21:58:27.426Z,24.07
2018-09-14T22:01:01.192Z,22.87
2018-09-14T22:03:29.642Z,24.03
2018-09-14T22:05:58.092Z,23.67
2018-09-14T22:08:26.720Z,23.10
2018-09-14T22:10:55.233Z,23.53
2018-09-14T22:13:23.741Z,21.83
2018-09-14T22:15:52.205Z,23.17
2018-09-14T22:18:21.463Z,23.07
2018-09-14T22:20:50.005Z,24.27
2018-09-14T22:23:18.659Z,23.43
2018-09-14T22:25:47.170Z,23.73
2018-09-14T22:28:15.751Z,22.50
2018-09-14T22:30:44.316Z,23.13
2018-09-14T22:33:12.789Z,23.80
2018-09-14T22:35:41.324Z,24.20
2018-09-14T22:38:09.828Z,23.80
2018-09-14T22:40:38.470Z,24.23
2018-09-14T22:43:06.929Z,25.73
2018-09-14T22:45:35.453Z,26.13
2018-09-14T22:48:03.878Z,26.57
2018-09-14T22:50:32.523Z,27.17
2018-09-14T22:53:01.386Z,27.03
2018-09-14T22:55:29.822Z,26.83
2018-09-14T22:57:58.320Z,27.63
2018-09-14T23:00:32.276Z,26.63
2018-09-14T23:03:01.899Z,28.80
2018-09-14T23:05:30.441Z,25.77
2018-09-14T23:07:58.944Z,28.57
2018-09-14T23:10:27.553Z,27.57
2018-09-14T23:12:56.096Z,29.17
2018-09-14T23:15:24.636Z,30.17
2018-09-14T23:17:56.639Z,30.33
2018-09-14T23:20:28.635Z,30.13
2018-09-14T23:22:57.161Z,28.83
2018-09-14T23:25:25.587Z,29.50
2018-09-14T23:27:54.201Z,27.53
2018-09-14T23:30:22.768Z,27.47
2018-09-14T23:32:51.376Z,25.30
2018-09-14T23:35:19.794Z,26.03
2018-09-14T23:37:48.311Z,26.60
2018-09-14T23:40:16.743Z,26.33
2018-09-14T23:42:45.223Z,23.50
2018-09-14T23:45:13.626Z,22.57
2018-09-14T23:47:42.012Z,24.10
2018-09-14T23:50:10.454Z,23.60
2018-09-14T23:52:38.877Z,23.20
2018-09-14T23:55:07.575Z,23.83
2018-09-14T23:57:36.043Z,23.43
